sensor_id;sensor_type;location;lat;lon;timestamp;temperature;humidity
66506;HTU21D;53332;51.082;5.832;2024-03-17T00:02:21;7.35;118.99
66506;HTU21D;53332;51.082;5.832;2024-03-17T00:04:47;7.35;118.99
66506;HTU21D;53332;51.082;5.832;2024-03-17T00:07:13;7.34;118.99
66506;HTU21D;53332;51.082;5.832;2024-03-17T00:09:39;7.38;118.99
66506;HTU21D;53332;51.082;5.832;2024-03-17T00:12:06;7.38;118.99
66506;HTU21D;53332;51.082;5.832;2024-03-17T00:14:33;7.35;118.99
66506;HTU21D;53332;51.082;5.832;2024-03-17T00:17:02;7.32;118.99
66506;HTU21D;53332;51.082;5.832;2024-03-17T00:19:28;7.31;118.99
66506;HTU21D;53332;51.082;5.832;2024-03-17T00:21:54;7.29;118.99
66506;HTU21D;53332;51.082;5.832;2024-03-17T00:24:20;7.35;118.99
66506;HTU21D;53332;51.082;5.832;2024-03-17T00:26:46;7.44;118.99
66506;HTU21D;53332;51.082;5.832;2024-03-17T00:29:12;7.50;118.99
66506;HTU21D;53332;51.082;5.832;2024-03-17T00:31:37;7.56;118.99
66506;HTU21D;53332;51.082;5.832;2024-03-17T00:34:03;7.64;118.99
66506;HTU21D;53332;51.082;5.832;2024-03-17T00:36:29;7.68;118.99
66506;HTU21D;53332;51.082;5.832;2024-03-17T00:38:56;7.72;118.99
66506;HTU21D;53332;51.082;5.832;2024-03-17T00:41:22;7.77;118.99
66506;HTU21D;53332;51.082;5.832;2024-03-17T00:43:49;7.84;118.99
66506;HTU21D;53332;51.082;5.832;2024-03-17T00:46:15;7.89;118.99
66506;HTU21D;53332;51.082;5.832;2024-03-17T00:48:41;7.91;118.99
66506;HTU21D;53332;51.082;5.832;2024-03-17T00:51:06;7.93;118.99
66506;HTU21D;53332;51.082;5.832;2024-03-17T00:53:32;7.92;118.99
66506;HTU21D;53332;51.082;5.832;2024-03-17T00:55:57;7.87;118.99
66506;HTU21D;53332;51.082;5.832;2024-03-17T00:58:24;7.86;118.99
66506;HTU21D;53332;51.082;5.832;2024-03-17T01:00:50;7.87;118.99
66506;HTU21D;53332;51.082;5.832;2024-03-17T01:03:16;7.85;118.99
66506;HTU21D;53332;51.082;5.832;2024-03-17T01:05:42;7.87;118.99
66506;HTU21D;53332;51.082;5.832;2024-03-17T01:08:10;7.87;118.99
66506;HTU21D;53332;51.082;5.832;2024-03-17T01:10:40;7.92;118.99
66506;HTU21D;53332;51.082;5.832;2024-03-17T01:13:07;7.93;118.99
66506;HTU21D;53332;51.082;5.832;2024-03-17T01:15:34;7.88;118.99
66506;HTU21D;53332;51.082;5.832;2024-03-17T01:17:59;7.84;118.99
66506;HTU21D;53332;51.082;5.832;2024-03-17T01:20:26;7.85;118.99
66506;HTU21D;53332;51.082;5.832;2024-03-17T01:22:51;7.85;118.99
66506;HTU21D;53332;51.082;5.832;2024-03-17T01:25:17;7.85;118.99
66506;HTU21D;53332;51.082;5.832;2024-03-17T01:27:42;7.84;118.99
66506;HTU21D;53332;51.082;5.832;2024-03-17T01:30:11;7.82;118.99
66506;HTU21D;53332;51.082;5.832;2024-03-17T01:32:36;7.84;118.99
66506;HTU21D;53332;51.082;5.832;2024-03-17T01:35:02;7.82;118.99
66506;HTU21D;53332;51.082;5.832;2024-03-17T01:37:28;7.82;118.99
66506;HTU21D;53332;51.082;5.832;2024-03-17T01:40:00;7.81;118.99
66506;HTU21D;53332;51.082;5.832;2024-03-17T01:42:26;7.77;118.99
66506;HTU21D;53332;51.082;5.832;2024-03-17T01:44:51;7.74;118.99
66506;HTU21D;53332;51.082;5.832;2024-03-17T01:47:18;7.72;118.99
66506;HTU21D;53332;51.082;5.832;2024-03-17T01:49:47;7.65;118.99
66506;HTU21D;53332;51.082;5.832;2024-03-17T01:52:15;7.57;118.99
66506;HTU21D;53332;51.082;5.832;2024-03-17T01:54:43;7.44;118.99
66506;HTU21D;53332;51.082;5.832;2024-03-17T01:57:09;7.31;118.99
66506;HTU21D;53332;51.082;5.832;2024-03-17T01:59:35;7.31;118.99
66506;HTU21D;53332;51.082;5.832;2024-03-17T02:02:02;7.34;118.99
66506;HTU21D;53332;51.082;5.832;2024-03-17T02:04:28;7.38;118.99
66506;HTU21D;53332;51.082;5.832;2024-03-17T02:06:53;7.35;118.99
66506;HTU21D;53332;51.082;5.832;2024-03-17T02:09:19;7.30;118.99
66506;HTU21D;53332;51.082;5.832;2024-03-17T02:11:48;7.31;118.99
66506;HTU21D;53332;51.082;5.832;2024-03-17T02:14:13;7.37;118.99
66506;HTU21D;53332;51.082;5.832;2024-03-17T02:16:40;7.34;118.99
66506;HTU21D;53332;51.082;5.832;2024-03-17T02:19:06;7.37;118.99
66506;HTU21D;53332;51.082;5.832;2024-03-17T02:21:32;7.41;118.99
66506;HTU21D;53332;51.082;5.832;2024-03-17T02:23:57;7.39;118.99
66506;HTU21D;53332;51.082;5.832;2024-03-17T02:26:26;7.42;118.99
66506;HTU21D;53332;51.082;5.832;2024-03-17T02:28:51;7.48;118.99
66506;HTU21D;53332;51.082;5.832;2024-03-17T02:31:17;7.49;118.99
66506;HTU21D;53332;51.082;5.832;2024-03-17T02:33:44;7.53;118.99
66506;HTU21D;53332;51.082;5.832;2024-03-17T02:36:11;7.57;118.99
66506;HTU21D;53332;51.082;5.832;2024-03-17T02:38:39;7.57;118.99
66506;HTU21D;53332;51.082;5.832;2024-03-17T02:41:24;7.52;118.99
66506;HTU21D;53332;51.082;5.832;2024-03-17T02:43:49;7.46;118.99
66506;HTU21D;53332;51.082;5.832;2024-03-17T02:46:17;7.41;118.99
66506;HTU21D;53332;51.082;5.832;2024-03-17T02:48:45;7.41;118.99
66506;HTU21D;53332;51.082;5.832;2024-03-17T02:51:14;7.43;118.99
66506;HTU21D;53332;51.082;5.832;2024-03-17T02:53:44;7.47;118.99
66506;HTU21D;53332;51.082;5.832;2024-03-17T02:56:14;7.57;118.99
66506;HTU21D;53332;51.082;5.832;2024-03-17T02:58:44;7.62;118.99
66506;HTU21D;53332;51.082;5.832;2024-03-17T03:01:12;7.68;118.99
66506;HTU21D;53332;51.082;5.832;2024-03-17T03:03:38;7.71;118.99
66506;HTU21D;53332;51.082;5.832;2024-03-17T03:06:04;7.73;118.99
66506;HTU21D;53332;51.082;5.832;2024-03-17T03:08:35;7.75;118.99
66506;HTU21D;53332;51.082;5.832;2024-03-17T03:11:06;7.75;118.99
66506;HTU21D;53332;51.082;5.832;2024-03-17T03:13:32;7.69;118.99
66506;HTU21D;53332;51.082;5.832;2024-03-17T03:15:58;7.61;118.99
66506;HTU21D;53332;51.082;5.832;2024-03-17T03:18:23;7.60;118.99
66506;HTU21D;53332;51.082;5.832;2024-03-17T03:20:52;7.59;118.99
66506;HTU21D;53332;51.082;5.832;2024-03-17T03:23:18;7.58;118.99
66506;HTU21D;53332;51.082;5.832;2024-03-17T03:25:44;7.59;118.99
66506;HTU21D;53332;51.082;5.832;2024-03-17T03:28:11;7.59;118.99
66506;HTU21D;53332;51.082;5.832;2024-03-17T03:30:36;7.63;118.99
66506;HTU21D;53332;51.082;5.832;2024-03-17T03:33:02;7.68;118.99
66506;HTU21D;53332;51.082;5.832;2024-03-17T03:35:30;7.71;118.99
66506;HTU21D;53332;51.082;5.832;2024-03-17T03:37:56;7.74;118.99
66506;HTU21D;53332;51.082;5.832;2024-03-17T03:40:22;7.73;118.99
66506;HTU21D;53332;51.082;5.832;2024-03-17T03:42:48;7.73;118.99
66506;HTU21D;53332;51.082;5.832;2024-03-17T03:45:14;7.76;118.99
66506;HTU21D;53332;51.082;5.832;2024-03-17T03:47:43;7.82;118.99
66506;HTU21D;53332;51.082;5.832;2024-03-17T03:50:14;7.84;118.99
66506;HTU21D;53332;51.082;5.832;2024-03-17T03:52:40;7.87;118.99
66506;HTU21D;53332;51.082;5.832;2024-03-17T03:55:08;7.89;118.99
66506;HTU21D;53332;51.082;5.832;2024-03-17T03:57:37;7.92;118.99
66506;HTU21D;53332;51.082;5.832;2024-03-17T04:00:03;7.91;118.99
66506;HTU21D;53332;51.082;5.832;2024-03-17T04:02:42;7.92;118.99
66506;HTU21D;53332;51.082;5.832;2024-03-17T04:05:08;7.94;118.99
66506;HTU21D;53332;51.082;5.832;2024-03-17T04:07:34;7.94;118.99
66506;HTU21D;53332;51.082;5.832;2024-03-17T04:10:04;7.92;118.99
66506;HTU21D;53332;51.082;5.832;2024-03-17T04:12:30;7.87;118.99
66506;HTU21D;53332;51.082;5.832;2024-03-17T04:14:59;7.86;118.99
66506;HTU21D;53332;51.082;5.832;2024-03-17T04:17:26;7.78;118.99
66506;HTU21D;53332;51.082;5.832;2024-03-17T04:19:55;7.71;118.99
66506;HTU21D;53332;51.082;5.832;2024-03-17T04:22:21;7.71;118.99
66506;HTU21D;53332;51.082;5.832;2024-03-17T04:24:48;7.72;118.99
66506;HTU21D;53332;51.082;5.832;2024-03-17T04:27:22;7.72;118.99
66506;HTU21D;53332;51.082;5.832;2024-03-17T04:29:53;7.72;118.99
66506;HTU21D;53332;51.082;5.832;2024-03-17T04:32:22;7.77;118.99
66506;HTU21D;53332;51.082;5.832;2024-03-17T04:34:47;7.84;118.99
66506;HTU21D;53332;51.082;5.832;2024-03-17T04:37:13;7.85;118.99
66506;HTU21D;53332;51.082;5.832;2024-03-17T04:39:39;7.79;118.99
66506;HTU21D;53332;51.082;5.832;2024-03-17T04:42:09;7.72;118.99
66506;HTU21D;53332;51.082;5.832;2024-03-17T04:44:35;7.69;118.99
66506;HTU21D;53332;51.082;5.832;2024-03-17T04:47:01;7.62;118.99
66506;HTU21D;53332;51.082;5.832;2024-03-17T04:49:26;7.53;118.99
66506;HTU21D;53332;51.082;5.832;2024-03-17T04:51:52;7.45;118.99
66506;HTU21D;53332;51.082;5.832;2024-03-17T04:54:17;7.37;118.99
66506;HTU21D;53332;51.082;5.832;2024-03-17T04:56:43;7.30;118.99
66506;HTU21D;53332;51.082;5.832;2024-03-17T04:59:08;7.25;118.99
66506;HTU21D;53332;51.082;5.832;2024-03-17T05:01:34;7.25;118.99
66506;HTU21D;53332;51.082;5.832;2024-03-17T05:04:03;7.26;118.99
66506;HTU21D;53332;51.082;5.832;2024-03-17T05:06:29;7.26;118.99
66506;HTU21D;53332;51.082;5.832;2024-03-17T05:08:55;7.28;118.99
66506;HTU21D;53332;51.082;5.832;2024-03-17T05:11:20;7.33;118.99
66506;HTU21D;53332;51.082;5.832;2024-03-17T05:13:46;7.37;118.99
66506;HTU21D;53332;51.082;5.832;2024-03-17T05:16:11;7.38;118.99
66506;HTU21D;53332;51.082;5.832;2024-03-17T05:18:37;7.33;118.99
66506;HTU21D;53332;51.082;5.832;2024-03-17T05:21:06;7.27;118.99
66506;HTU21D;53332;51.082;5.832;2024-03-17T05:23:33;7.24;118.99
66506;HTU21D;53332;51.082;5.832;2024-03-17T05:26:00;7.14;118.99
66506;HTU21D;53332;51.082;5.832;2024-03-17T05:28:28;7.03;118.99
66506;HTU21D;53332;51.082;5.832;2024-03-17T05:30:54;6.95;118.99
66506;HTU21D;53332;51.082;5.832;2024-03-17T05:33:21;6.91;118.99
66506;HTU21D;53332;51.082;5.832;2024-03-17T05:35:58;6.94;118.99
66506;HTU21D;53332;51.082;5.832;2024-03-17T05:38:27;6.99;118.99
66506;HTU21D;53332;51.082;5.832;2024-03-17T05:41:04;7.03;118.99
66506;HTU21D;53332;51.082;5.832;2024-03-17T05:43:32;7.03;118.99
66506;HTU21D;53332;51.082;5.832;2024-03-17T05:46:11;6.98;118.99
66506;HTU21D;53332;51.082;5.832;2024-03-17T05:48:40;6.96;118.99
66506;HTU21D;53332;51.082;5.832;2024-03-17T05:51:12;6.94;118.99
66506;HTU21D;53332;51.082;5.832;2024-03-17T05:53:39;6.96;118.99
66506;HTU21D;53332;51.082;5.832;2024-03-17T05:56:10;6.99;118.99
66506;HTU21D;53332;51.082;5.832;2024-03-17T05:58:41;7.00;118.99
66506;HTU21D;53332;51.082;5.832;2024-03-17T06:01:07;7.04;118.99
66506;HTU21D;53332;51.082;5.832;2024-03-17T06:03:36;7.08;118.99
66506;HTU21D;53332;51.082;5.832;2024-03-17T06:06:03;7.11;118.99
66506;HTU21D;53332;51.082;5.832;2024-03-17T06:08:29;7.10;118.99
66506;HTU21D;53332;51.082;5.832;2024-03-17T06:10:54;7.05;118.99
66506;HTU21D;53332;51.082;5.832;2024-03-17T06:13:23;7.02;118.99
66506;HTU21D;53332;51.082;5.832;2024-03-17T06:15:50;6.97;118.99
66506;HTU21D;53332;51.082;5.832;2024-03-17T06:18:15;6.94;118.99
66506;HTU21D;53332;51.082;5.832;2024-03-17T06:20:46;6.91;118.99
66506;HTU21D;53332;51.082;5.832;2024-03-17T06:23:14;6.95;118.99
66506;HTU21D;53332;51.082;5.832;2024-03-17T06:25:45;6.97;118.99
66506;HTU21D;53332;51.082;5.832;2024-03-17T06:28:13;7.00;118.99
66506;HTU21D;53332;51.082;5.832;2024-03-17T06:30:54;7.02;118.99
66506;HTU21D;53332;51.082;5.832;2024-03-17T06:33:20;7.02;118.99
66506;HTU21D;53332;51.082;5.832;2024-03-17T06:35:46;7.04;118.99
66506;HTU21D;53332;51.082;5.832;2024-03-17T06:38:13;7.10;118.99
66506;HTU21D;53332;51.082;5.832;2024-03-17T06:40:40;7.18;118.99
66506;HTU21D;53332;51.082;5.832;2024-03-17T06:43:06;7.31;118.99
66506;HTU21D;53332;51.082;5.832;2024-03-17T06:45:32;7.44;118.99
66506;HTU21D;53332;51.082;5.832;2024-03-17T06:47:58;7.59;118.99
66506;HTU21D;53332;51.082;5.832;2024-03-17T06:50:24;7.73;118.99
66506;HTU21D;53332;51.082;5.832;2024-03-17T06:52:50;7.89;118.99
66506;HTU21D;53332;51.082;5.832;2024-03-17T06:55:17;8.00;118.99
66506;HTU21D;53332;51.082;5.832;2024-03-17T06:57:44;8.09;118.99
66506;HTU21D;53332;51.082;5.832;2024-03-17T07:00:13;8.20;118.99
66506;HTU21D;53332;51.082;5.832;2024-03-17T07:02:43;8.31;118.99
66506;HTU21D;53332;51.082;5.832;2024-03-17T07:05:13;8.43;118.99
66506;HTU21D;53332;51.082;5.832;2024-03-17T07:07:43;8.57;118.99
66506;HTU21D;53332;51.082;5.832;2024-03-17T07:10:10;8.74;118.99
66506;HTU21D;53332;51.082;5.832;2024-03-17T07:12:41;8.95;118.99
66506;HTU21D;53332;51.082;5.832;2024-03-17T07:15:07;9.18;118.99
66506;HTU21D;53332;51.082;5.832;2024-03-17T07:17:34;9.38;118.99
66506;HTU21D;53332;51.082;5.832;2024-03-17T07:20:00;9.59;118.99
66506;HTU21D;53332;51.082;5.832;2024-03-17T07:22:25;9.80;118.99
66506;HTU21D;53332;51.082;5.832;2024-03-17T07:24:54;10.01;118.99
66506;HTU21D;53332;51.082;5.832;2024-03-17T07:27:30;10.33;118.99
66506;HTU21D;53332;51.082;5.832;2024-03-17T07:29:57;10.43;118.99
66506;HTU21D;53332;51.082;5.832;2024-03-17T07:32:22;10.49;118.99
66506;HTU21D;53332;51.082;5.832;2024-03-17T07:34:51;10.52;118.99
66506;HTU21D;53332;51.082;5.832;2024-03-17T07:37:17;10.52;118.99
66506;HTU21D;53332;51.082;5.832;2024-03-17T07:39:43;10.49;118.99
66506;HTU21D;53332;51.082;5.832;2024-03-17T07:42:08;10.43;118.99
66506;HTU21D;53332;51.082;5.832;2024-03-17T07:44:34;10.38;118.99
66506;HTU21D;53332;51.082;5.832;2024-03-17T07:47:03;10.33;118.99
66506;HTU21D;53332;51.082;5.832;2024-03-17T07:49:30;10.34;118.99
66506;HTU21D;53332;51.082;5.832;2024-03-17T07:51:55;10.35;118.99
66506;HTU21D;53332;51.082;5.832;2024-03-17T07:54:26;10.36;118.99
66506;HTU21D;53332;51.082;5.832;2024-03-17T07:56:51;10.36;118.99
66506;HTU21D;53332;51.082;5.832;2024-03-17T07:59:17;10.39;118.99
66506;HTU21D;53332;51.082;5.832;2024-03-17T08:01:44;10.42;118.99
66506;HTU21D;53332;51.082;5.832;2024-03-17T08:04:09;10.46;118.99
66506;HTU21D;53332;51.082;5.832;2024-03-17T08:06:38;10.51;118.99
66506;HTU21D;53332;51.082;5.832;2024-03-17T08:09:04;10.54;118.99
66506;HTU21D;53332;51.082;5.832;2024-03-17T08:11:29;10.63;118.99
66506;HTU21D;53332;51.082;5.832;2024-03-17T08:13:55;10.69;118.99
66506;HTU21D;53332;51.082;5.832;2024-03-17T08:16:21;10.80;118.99
66506;HTU21D;53332;51.082;5.832;2024-03-17T08:18:46;10.82;118.99
66506;HTU21D;53332;51.082;5.832;2024-03-17T08:21:12;10.83;118.99
66506;HTU21D;53332;51.082;5.832;2024-03-17T08:23:38;10.90;118.99
66506;HTU21D;53332;51.082;5.832;2024-03-17T08:26:13;10.95;118.99
66506;HTU21D;53332;51.082;5.832;2024-03-17T08:28:38;10.99;118.99
66506;HTU21D;53332;51.082;5.832;2024-03-17T08:31:05;11.07;118.99
66506;HTU21D;53332;51.082;5.832;2024-03-17T08:33:31;11.17;118.99
66506;HTU21D;53332;51.082;5.832;2024-03-17T08:36:03;11.27;118.99
66506;HTU21D;53332;51.082;5.832;2024-03-17T08:38:30;11.37;118.99
66506;HTU21D;53332;51.082;5.832;2024-03-17T08:40:57;11.44;118.99
66506;HTU21D;53332;51.082;5.832;2024-03-17T08:43:26;11.48;118.99
66506;HTU21D;53332;51.082;5.832;2024-03-17T08:46:05;11.54;118.99
66506;HTU21D;53332;51.082;5.832;2024-03-17T08:48:36;11.57;118.99
66506;HTU21D;53332;51.082;5.832;2024-03-17T08:51:04;11.54;118.99
66506;HTU21D;53332;51.082;5.832;2024-03-17T08:53:30;11.58;118.99
66506;HTU21D;53332;51.082;5.832;2024-03-17T08:55:57;11.69;118.99
66506;HTU21D;53332;51.082;5.832;2024-03-17T08:58:23;11.77;118.99
66506;HTU21D;53332;51.082;5.832;2024-03-17T09:00:49;11.89;118.99
66506;HTU21D;53332;51.082;5.832;2024-03-17T09:03:15;12.00;118.99
66506;HTU21D;53332;51.082;5.832;2024-03-17T09:05:46;12.07;118.99
66506;HTU21D;53332;51.082;5.832;2024-03-17T09:08:17;12.14;118.99
66506;HTU21D;53332;51.082;5.832;2024-03-17T09:10:44;12.20;118.99
66506;HTU21D;53332;51.082;5.832;2024-03-17T09:13:15;12.20;118.99
66506;HTU21D;53332;51.082;5.832;2024-03-17T09:15:56;12.23;118.99
66506;HTU21D;53332;51.082;5.832;2024-03-17T09:18:23;12.26;118.99
66506;HTU21D;53332;51.082;5.832;2024-03-17T09:21:02;12.31;118.99
66506;HTU21D;53332;51.082;5.832;2024-03-17T09:23:29;12.35;118.99
66506;HTU21D;53332;51.082;5.832;2024-03-17T09:25:59;12.41;118.99
66506;HTU21D;53332;51.082;5.832;2024-03-17T09:28:27;12.50;118.99
66506;HTU21D;53332;51.082;5.832;2024-03-17T09:30:53;12.62;118.99
66506;HTU21D;53332;51.082;5.832;2024-03-17T09:33:20;12.67;118.99
66506;HTU21D;53332;51.082;5.832;2024-03-17T09:35:55;12.69;118.99
66506;HTU21D;53332;51.082;5.832;2024-03-17T09:38:22;12.72;118.99
66506;HTU21D;53332;51.082;5.832;2024-03-17T09:40:48;12.79;118.99
66506;HTU21D;53332;51.082;5.832;2024-03-17T09:43:16;12.85;118.99
66506;HTU21D;53332;51.082;5.832;2024-03-17T09:45:42;12.94;118.99
66506;HTU21D;53332;51.082;5.832;2024-03-17T09:48:15;13.03;118.99
66506;HTU21D;53332;51.082;5.832;2024-03-17T09:50:41;13.10;118.99
66506;HTU21D;53332;51.082;5.832;2024-03-17T09:53:16;13.16;118.99
66506;HTU21D;53332;51.082;5.832;2024-03-17T09:55:44;13.27;118.99
66506;HTU21D;53332;51.082;5.832;2024-03-17T09:58:16;13.45;118.99
66506;HTU21D;53332;51.082;5.832;2024-03-17T10:00:43;13.73;118.99
66506;HTU21D;53332;51.082;5.832;2024-03-17T10:03:09;13.97;118.99
66506;HTU21D;53332;51.082;5.832;2024-03-17T10:05:35;14.10;118.99
66506;HTU21D;53332;51.082;5.832;2024-03-17T10:08:00;14.19;118.99
66506;HTU21D;53332;51.082;5.832;2024-03-17T10:10:26;14.29;118.99
66506;HTU21D;53332;51.082;5.832;2024-03-17T10:12:52;14.41;118.99
66506;HTU21D;53332;51.082;5.832;2024-03-17T10:15:19;14.47;118.99
66506;HTU21D;53332;51.082;5.832;2024-03-17T10:17:49;14.52;118.99
66506;HTU21D;53332;51.082;5.832;2024-03-17T10:20:18;14.51;108.24
66506;HTU21D;53332;51.082;5.832;2024-03-17T10:25:26;14.33;108.57
66506;HTU21D;53332;51.082;5.832;2024-03-17T10:27:53;14.18;111.02
66506;HTU21D;53332;51.082;5.832;2024-03-17T10:30:20;14.11;115.50
66506;HTU21D;53332;51.082;5.832;2024-03-17T10:32:52;14.05;114.40
66506;HTU21D;53332;51.082;5.832;2024-03-17T10:35:34;13.97;114.37
66506;HTU21D;53332;51.082;5.832;2024-03-17T10:38:01;13.96;118.47
66506;HTU21D;53332;51.082;5.832;2024-03-17T10:40:29;14.01;118.99
66506;HTU21D;53332;51.082;5.832;2024-03-17T10:43:00;14.10;118.69
66506;HTU21D;53332;51.082;5.832;2024-03-17T10:45:27;14.10;116.54
66506;HTU21D;53332;51.082;5.832;2024-03-17T10:47:59;14.10;116.14
66506;HTU21D;53332;51.082;5.832;2024-03-17T10:50:30;14.10;116.04
66506;HTU21D;53332;51.082;5.832;2024-03-17T10:53:02;14.21;116.77
66506;HTU21D;53332;51.082;5.832;2024-03-17T10:55:32;14.24;114.07
66506;HTU21D;53332;51.082;5.832;2024-03-17T10:58:04;14.29;114.55
66506;HTU21D;53332;51.082;5.832;2024-03-17T11:00:31;14.36;118.99
66506;HTU21D;53332;51.082;5.832;2024-03-17T11:02:57;14.37;113.93
66506;HTU21D;53332;51.082;5.832;2024-03-17T11:05:29;14.39;113.03
66506;HTU21D;53332;51.082;5.832;2024-03-17T11:07:57;14.43;112.67
66506;HTU21D;53332;51.082;5.832;2024-03-17T11:12:56;14.45;114.45
66506;HTU21D;53332;51.082;5.832;2024-03-17T11:17:54;14.37;114.73
66506;HTU21D;53332;51.082;5.832;2024-03-17T11:20:25;14.35;115.77
66506;HTU21D;53332;51.082;5.832;2024-03-17T11:22:56;14.37;118.99
66506;HTU21D;53332;51.082;5.832;2024-03-17T11:28:09;14.53;115.70
66506;HTU21D;53332;51.082;5.832;2024-03-17T11:41:39;14.66;115.61
66506;HTU21D;53332;51.082;5.832;2024-03-17T11:49:33;14.74;116.08
66506;HTU21D;53332;51.082;5.832;2024-03-17T11:52:04;14.74;113.33
66506;HTU21D;53332;51.082;5.832;2024-03-17T11:54:33;14.74;116.67
66506;HTU21D;53332;51.082;5.832;2024-03-17T11:57:04;14.78;118.71
66506;HTU21D;53332;51.082;5.832;2024-03-17T11:59:31;14.81;112.81
66506;HTU21D;53332;51.082;5.832;2024-03-17T12:01:57;14.83;115.86
66506;HTU21D;53332;51.082;5.832;2024-03-17T12:04:24;14.82;116.38
66506;HTU21D;53332;51.082;5.832;2024-03-17T12:06:52;14.77;112.48
66506;HTU21D;53332;51.082;5.832;2024-03-17T12:14:43;14.89;114.87
66506;HTU21D;53332;51.082;5.832;2024-03-17T12:17:11;14.89;115.80
66506;HTU21D;53332;51.082;5.832;2024-03-17T12:19:38;14.91;114.03
66506;HTU21D;53332;51.082;5.832;2024-03-17T12:22:05;14.92;113.24
66506;HTU21D;53332;51.082;5.832;2024-03-17T12:24:33;14.91;118.46
66506;HTU21D;53332;51.082;5.832;2024-03-17T12:27:00;14.94;116.97
66506;HTU21D;53332;51.082;5.832;2024-03-17T12:29:34;14.93;113.73
66506;HTU21D;53332;51.082;5.832;2024-03-17T12:32:15;14.93;115.48
66506;HTU21D;53332;51.082;5.832;2024-03-17T12:34:46;14.92;118.99
66506;HTU21D;53332;51.082;5.832;2024-03-17T12:37:23;14.92;115.10
66506;HTU21D;53332;51.082;5.832;2024-03-17T12:39:51;14.91;113.62
66506;HTU21D;53332;51.082;5.832;2024-03-17T12:42:23;14.88;113.93
66506;HTU21D;53332;51.082;5.832;2024-03-17T12:44:57;14.84;114.58
66506;HTU21D;53332;51.082;5.832;2024-03-17T12:47:28;14.83;115.90
66506;HTU21D;53332;51.082;5.832;2024-03-17T12:49:58;14.75;111.61
66506;HTU21D;53332;51.082;5.832;2024-03-17T12:52:26;14.73;114.21
66506;HTU21D;53332;51.082;5.832;2024-03-17T12:55:06;14.73;117.41
66506;HTU21D;53332;51.082;5.832;2024-03-17T13:00:45;14.73;114.75
66506;HTU21D;53332;51.082;5.832;2024-03-17T13:03:24;14.78;113.97
66506;HTU21D;53332;51.082;5.832;2024-03-17T13:05:50;14.84;118.99
66506;HTU21D;53332;51.082;5.832;2024-03-17T13:08:17;14.88;116.88
66506;HTU21D;53332;51.082;5.832;2024-03-17T13:10:42;14.93;115.84
66506;HTU21D;53332;51.082;5.832;2024-03-17T13:13:09;14.99;116.92
66506;HTU21D;53332;51.082;5.832;2024-03-17T13:15:36;15.06;112.67
66506;HTU21D;53332;51.082;5.832;2024-03-17T13:18:02;15.21;116.40
66506;HTU21D;53332;51.082;5.832;2024-03-17T13:20:30;15.32;109.36
66506;HTU21D;53332;51.082;5.832;2024-03-17T13:22:56;15.42;111.87
66506;HTU21D;53332;51.082;5.832;2024-03-17T13:25:30;15.55;113.22
66506;HTU21D;53332;51.082;5.832;2024-03-17T13:28:02;15.65;111.26
66506;HTU21D;53332;51.082;5.832;2024-03-17T13:30:30;15.76;109.81
66506;HTU21D;53332;51.082;5.832;2024-03-17T13:32:56;15.87;108.70
66506;HTU21D;53332;51.082;5.832;2024-03-17T13:35:27;15.91;104.08
66506;HTU21D;53332;51.082;5.832;2024-03-17T13:37:53;15.92;106.01
66506;HTU21D;53332;51.082;5.832;2024-03-17T13:40:25;15.90;101.81
66506;HTU21D;53332;51.082;5.832;2024-03-17T13:42:52;15.90;97.13
66506;HTU21D;53332;51.082;5.832;2024-03-17T13:45:22;15.96;104.37
66506;HTU21D;53332;51.082;5.832;2024-03-17T13:47:56;15.99;99.73
66506;HTU21D;53332;51.082;5.832;2024-03-17T13:50:23;16.00;102.23
66506;HTU21D;53332;51.082;5.832;2024-03-17T13:52:49;16.11;103.79
66506;HTU21D;53332;51.082;5.832;2024-03-17T13:55:19;16.18;102.38
66506;HTU21D;53332;51.082;5.832;2024-03-17T13:57:53;16.22;95.47
66506;HTU21D;53332;51.082;5.832;2024-03-17T14:00:24;16.29;106.39
66506;HTU21D;53332;51.082;5.832;2024-03-17T14:02:52;16.27;103.91
66506;HTU21D;53332;51.082;5.832;2024-03-17T14:05:27;16.21;100.62
66506;HTU21D;53332;51.082;5.832;2024-03-17T14:07:54;16.12;106.40
66506;HTU21D;53332;51.082;5.832;2024-03-17T14:10:22;16.01;105.43
66506;HTU21D;53332;51.082;5.832;2024-03-17T14:12:48;15.93;108.23
66506;HTU21D;53332;51.082;5.832;2024-03-17T14:15:15;15.91;101.64
66506;HTU21D;53332;51.082;5.832;2024-03-17T14:17:42;15.91;106.58
66506;HTU21D;53332;51.082;5.832;2024-03-17T14:20:09;15.88;105.66
66506;HTU21D;53332;51.082;5.832;2024-03-17T14:22:42;15.77;106.18
66506;HTU21D;53332;51.082;5.832;2024-03-17T14:25:10;15.74;108.04
66506;HTU21D;53332;51.082;5.832;2024-03-17T14:27:39;15.71;101.72
66506;HTU21D;53332;51.082;5.832;2024-03-17T14:30:05;15.69;101.83
66506;HTU21D;53332;51.082;5.832;2024-03-17T14:32:31;15.65;102.19
66506;HTU21D;53332;51.082;5.832;2024-03-17T14:34:57;15.62;105.81
66506;HTU21D;53332;51.082;5.832;2024-03-17T14:37:22;15.59;111.55
66506;HTU21D;53332;51.082;5.832;2024-03-17T14:39:49;15.56;108.44
66506;HTU21D;53332;51.082;5.832;2024-03-17T14:42:15;15.58;111.51
66506;HTU21D;53332;51.082;5.832;2024-03-17T14:44:40;15.65;107.93
66506;HTU21D;53332;51.082;5.832;2024-03-17T14:47:06;15.68;107.03
66506;HTU21D;53332;51.082;5.832;2024-03-17T14:49:33;15.67;107.85
66506;HTU21D;53332;51.082;5.832;2024-03-17T14:51:59;15.70;112.89
66506;HTU21D;53332;51.082;5.832;2024-03-17T14:54:25;15.75;105.36
66506;HTU21D;53332;51.082;5.832;2024-03-17T14:56:52;15.84;112.25
66506;HTU21D;53332;51.082;5.832;2024-03-17T14:59:19;15.89;105.03
66506;HTU21D;53332;51.082;5.832;2024-03-17T15:01:48;15.91;104.54
66506;HTU21D;53332;51.082;5.832;2024-03-17T15:04:14;15.91;100.06
66506;HTU21D;53332;51.082;5.832;2024-03-17T15:06:42;15.89;105.49
66506;HTU21D;53332;51.082;5.832;2024-03-17T15:09:11;15.84;104.80
66506;HTU21D;53332;51.082;5.832;2024-03-17T15:11:45;15.77;105.45
66506;HTU21D;53332;51.082;5.832;2024-03-17T15:14:10;15.71;107.41
66506;HTU21D;53332;51.082;5.832;2024-03-17T15:16:37;15.66;109.73
66506;HTU21D;53332;51.082;5.832;2024-03-17T15:19:04;15.60;106.39
66506;HTU21D;53332;51.082;5.832;2024-03-17T15:21:30;15.52;106.96
66506;HTU21D;53332;51.082;5.832;2024-03-17T15:23:56;15.47;108.43
66506;HTU21D;53332;51.082;5.832;2024-03-17T15:26:21;15.51;108.81
66506;HTU21D;53332;51.082;5.832;2024-03-17T15:28:47;15.51;106.90
66506;HTU21D;53332;51.082;5.832;2024-03-17T15:31:13;15.53;103.17
66506;HTU21D;53332;51.082;5.832;2024-03-17T15:33:39;15.56;106.91
66506;HTU21D;53332;51.082;5.832;2024-03-17T15:36:08;15.57;104.54
66506;HTU21D;53332;51.082;5.832;2024-03-17T15:38:35;15.57;107.20
66506;HTU21D;53332;51.082;5.832;2024-03-17T15:41:09;15.57;103.30
66506;HTU21D;53332;51.082;5.832;2024-03-17T15:43:40;15.59;102.12
66506;HTU21D;53332;51.082;5.832;2024-03-17T15:46:14;15.61;103.18
66506;HTU21D;53332;51.082;5.832;2024-03-17T15:48:40;15.63;104.09